Time;durP1;ratioP1;P1;durP2;ratioP2;P2;SDS_P1;SDS_P2;PMS_P1;PMS_P2;Temp;Humidity;BMP_temperature;BMP_pressure;BME280_temperature;BME280_humidity;BME280_pressure;Samples;Min_cycle;Max_cycle;Signal;HPM_P1;HPM_P2
2022/09/03 00:00:36;;;;;;;6.97;3.05;;;;;;;22.67;61.77;100367.63;5076876;28;20048;-64
2022/09/03 00:03:26;;;;;;;6.32;4.20;;;;;;;22.61;61.88;100364.44;5059539;28;20052;-65
2022/09/03 00:06:05;;;;;;;6.00;3.67;;;;;;;22.66;62.35;100361.22;5082856;28;20055;-65
2022/09/03 00:08:42;;;;;;;6.93;3.70;;;;;;;22.71;61.93;100357.19;5056774;28;20140;-67
2022/09/03 00:11:31;;;;;;;6.47;3.53;;;;;;;22.65;62.54;100364.44;5038838;28;20496;-65
2022/09/03 00:14:15;;;;;;;5.75;3.70;;;;;;;22.63;62.45;100364.81;5039817;28;20064;-65
2022/09/03 00:17:02;;;;;;;6.38;3.70;;;;;;;22.46;62.95;100368.41;5038638;28;20061;-65
2022/09/03 00:19:32;;;;;;;7.07;3.45;;;;;;;22.44;63.32;100364.44;5055870;28;20049;-65
2022/09/03 00:22:06;;;;;;;6.18;3.22;;;;;;;22.16;64.66;100356.78;5038809;28;20057;-65
2022/09/03 00:24:36;;;;;;;5.57;3.20;;;;;;;22.23;64.43;100356.78;5058365;28;20059;-66
2022/09/03 00:27:10;;;;;;;7.40;3.33;;;;;;;22.26;64.11;100356.78;5058394;28;20500;-67
2022/09/03 00:29:42;;;;;;;4.75;3.17;;;;;;;22.23;64.70;100353.97;5058753;28;20056;-66
2022/09/03 00:32:17;;;;;;;5.03;3.55;;;;;;;21.87;66.26;100363.56;5058490;28;20546;-66
2022/09/03 00:34:50;;;;;;;5.82;3.38;;;;;;;21.90;65.74;100352.34;5058797;28;20052;-66
2022/09/03 00:37:17;;;;;;;5.07;3.30;;;;;;;22.17;64.57;100362.03;5041995;28;20052;-66
2022/09/03 00:39:44;;;;;;;5.35;3.42;;;;;;;22.31;63.54;100352.81;5076436;28;20075;-65
2022/09/03 00:42:33;;;;;;;4.72;3.08;;;;;;;22.28;63.68;100348.78;5058256;28;20056;-65
2022/09/03 00:45:21;;;;;;;5.60;3.25;;;;;;;22.06;64.59;100351.97;5076589;28;20045;-64
2022/09/03 00:48:05;;;;;;;5.05;2.90;;;;;;;21.98;64.94;100350.38;5076105;28;20052;-65
2022/09/03 00:50:50;;;;;;;6.00;3.50;;;;;;;21.98;64.66;100355.97;5074549;28;20518;-66
2022/09/03 00:53:29;;;;;;;5.85;3.42;;;;;;;22.00;65.14;100362.78;5076100;28;20067;-65
2022/09/03 00:56:18;;;;;;;4.57;3.20;;;;;;;22.18;64.31;100368.41;5075520;28;20067;-67
2022/09/03 00:58:57;;;;;;;6.60;4.05;;;;;;;22.11;64.25;100374.03;5075561;28;20056;-66
2022/09/03 01:01:47;;;;;;;6.60;3.57;;;;;;;22.11;64.58;100366.41;5075922;28;20496;-66
2022/09/03 01:04:33;;;;;;;5.43;3.40;;;;;;;22.11;64.24;100366.41;5080002;28;20047;-66
2022/09/03 01:07:11;;;;;;;4.90;3.50;;;;;;;22.14;64.55;100373.25;5064937;28;20052;-65
2022/09/03 01:09:53;;;;;;;4.93;3.25;;;;;;;22.05;64.76;100375.63;5055300;28;20373;-66
2022/09/03 01:12:54;;;;;;;5.38;3.35;;;;;;;22.05;64.54;100375.63;5037506;28;20060;-65
2022/09/03 01:15:40;;;;;;;5.75;3.50;;;;;;;22.02;64.88;100368.03;5037568;28;20420;-67
2022/09/03 01:18:10;;;;;;;6.70;3.58;;;;;;;22.06;64.66;100372.41;5055733;28;20045;-65
2022/09/03 01:20:44;;;;;;;6.15;3.80;;;;;;;21.90;65.27;100366.38;5055046;28;20053;-66
2022/09/03 01:23:36;;;;;;;5.10;3.30;;;;;;;22.02;64.09;100363.19;5044783;28;20056;-66
2022/09/03 01:26:32;;;;;;;6.93;3.60;;;;;;;22.05;64.35;100368.03;5075195;28;20052;-65
2022/09/03 01:29:30;;;;;;;6.50;3.20;;;;;;;22.08;64.39;100367.22;5049217;28;20516;-66
2022/09/03 01:32:06;;;;;;;5.32;3.22;;;;;;;22.05;64.66;100372.81;5048994;28;20512;-66
2022/09/03 01:34:49;;;;;;;4.63;3.25;;;;;;;22.08;64.29;100369.22;5055191;28;20049;-67
2022/09/03 01:37:26;;;;;;;6.15;3.13;;;;;;;22.07;64.25;100367.63;5043706;28;20052;-66
2022/09/03 01:40:12;;;;;;;6.60;3.47;;;;;;;22.05;64.66;100365.22;5055283;28;20055;-66
2022/09/03 01:43:01;;;;;;;6.15;3.28;;;;;;;22.06;64.88;100366.81;5055297;28;20439;-66
2022/09/03 01:45:43;;;;;;;7.03;3.07;;;;;;;22.06;64.65;100366.81;5037495;28;20068;-65
2022/09/03 01:48:39;;;;;;;5.28;2.80;;;;;;;21.98;65.41;100370.81;5055276;28;20302;-66
2022/09/03 01:51:19;;;;;;;5.18;3.38;;;;;;;21.99;64.63;100368.78;5054507;28;20059;-65
2022/09/03 01:54:26;;;;;;;5.78;3.58;;;;;;;21.92;65.06;100363.16;5055247;28;20055;-65
2022/09/03 01:57:12;;;;;;;4.57;3.28;;;;;;;21.73;66.40;100366.31;5036959;28;20052;-66
2022/09/03 02:00:12;;;;;;;6.72;3.28;;;;;;;21.94;65.60;100372.00;5040440;28;20052;-65
2022/09/03 02:02:42;;;;;;;4.53;3.17;;;;;;;21.81;65.68;100367.97;5054970;28;20040;-68
2022/09/03 02:05:13;;;;;;;6.07;3.28;;;;;;;21.80;65.75;100363.56;5078560;28;20044;-67
2022/09/03 02:07:43;;;;;;;6.25;3.22;;;;;;;21.79;66.63;100368.34;5036572;28;20056;-64
2022/09/03 02:10:14;;;;;;;4.82;3.28;;;;;;;21.78;65.85;100363.97;5053666;28;20048;-65
2022/09/03 02:12:48;;;;;;;5.88;3.50;;;;;;;21.81;66.02;100360.34;5054644;28;20057;-65
2022/09/03 02:15:18;;;;;;;5.88;3.63;;;;;;;21.78;66.24;100369.56;5036583;28;20064;-67
2022/09/03 02:17:47;;;;;;;6.10;3.38;;;;;;;21.73;66.47;100363.50;5020073;28;20049;-66
2022/09/03 02:20:21;;;;;;;6.53;3.38;;;;;;;21.76;66.32;100365.53;5035592;28;20060;-66
2022/09/03 02:22:49;;;;;;;7.45;3.88;;;;;;;21.55;67.26;100360.66;5054566;28;20063;-65
2022/09/03 02:25:17;;;;;;;6.70;3.50;;;;;;;21.58;67.17;100371.09;5036666;28;20063;-64
2022/09/03 02:27:44;;;;;;;6.20;3.38;;;;;;;21.59;67.11;100364.28;5054590;28;20083;-64
2022/09/03 02:30:11;;;;;;;6.78;3.40;;;;;;;21.45;67.82;100364.22;5036447;28;20056;-64
2022/09/03 02:32:39;;;;;;;8.30;3.88;;;;;;;21.48;67.86;100369.03;5054244;28;20059;-65
2022/09/03 02:35:07;;;;;;;6.68;3.63;;;;;;;21.27;69.24;100374.56;5054112;28;20056;-65
2022/09/03 02:37:34;;;;;;;6.22;3.70;;;;;;;21.34;68.40;100371.78;5036160;28;20067;-66
2022/09/03 02:40:05;;;;;;;5.32;3.33;;;;;;;21.29;68.88;100369.38;5035260;28;20822;-65
2022/09/03 02:42:33;;;;;;;5.75;3.58;;;;;;;21.37;69.14;100370.19;5053566;28;20695;-65
2022/09/03 02:45:13;;;;;;;9.23;4.15;;;;;;;21.27;69.91;100370.97;5020646;28;20053;-64
2022/09/03 02:47:43;;;;;;;6.10;3.67;;;;;;;21.39;69.53;100374.22;5036567;28;20057;-65
2022/09/03 02:50:10;;;;;;;6.88;3.70;;;;;;;21.38;69.32;100375.41;5035382;28;20632;-65
2022/09/03 02:52:37;;;;;;;6.90;4.13;;;;;;;21.27;69.78;100380.97;5035999;28;20053;-65
2022/09/03 02:55:06;;;;;;;8.07;4.15;;;;;;;21.41;69.85;100371.81;5054410;28;20416;-64
2022/09/03 02:57:34;;;;;;;5.35;3.85;;;;;;;21.47;69.40;100366.63;5036153;28;20049;-65
2022/09/03 03:00:01;;;;;;;10.73;4.60;;;;;;;21.59;69.48;100371.88;5054146;28;20049;-65
2022/09/03 03:02:29;;;;;;;9.23;4.53;;;;;;;21.68;68.65;100367.50;5053518;28;20072;-65
2022/09/03 03:04:56;;;;;;;7.35;4.05;;;;;;;21.56;68.71;100367.88;5074478;28;20578;-65
2022/09/03 03:07:24;;;;;;;7.25;4.20;;;;;;;21.49;69.89;100370.66;5038770;28;20063;-65
2022/09/03 03:09:52;;;;;;;6.53;4.10;;;;;;;21.52;69.87;100377.47;5053784;28;20057;-65
2022/09/03 03:12:20;;;;;;;7.15;4.50;;;;;;;21.44;70.28;100375.84;5053595;28;20515;-64
2022/09/03 03:14:47;;;;;;;5.55;4.00;;;;;;;21.43;70.35;100379.84;5054125;28;20057;-65
2022/09/03 03:17:14;;;;;;;6.80;4.53;;;;;;;21.49;70.09;100369.84;5053686;28;20053;-65
2022/09/03 03:19:42;;;;;;;6.78;4.30;;;;;;;21.48;70.33;100374.63;5053940;28;20053;-65
2022/09/03 03:22:09;;;;;;;8.40;5.07;;;;;;;21.43;70.56;100372.22;5053311;28;20057;-65
2022/09/03 03:24:36;;;;;;;6.78;4.32;;;;;;;21.57;70.24;100368.66;5072593;28;20057;-65
2022/09/03 03:27:06;;;;;;;7.97;4.95;;;;;;;21.48;70.73;100373.84;5055582;28;20060;-65
2022/09/03 03:29:33;;;;;;;6.07;4.40;;;;;;;21.22;72.19;100370.16;5073996;28;20041;-65
2022/09/03 03:32:01;;;;;;;6.80;4.78;;;;;;;21.19;72.30;100372.94;5039033;28;20357;-65
2022/09/03 03:34:28;;;;;;;8.15;5.13;;;;;;;21.30;72.09;100375.78;5073707;28;20052;-65
2022/09/03 03:36:56;;;;;;;8.23;4.68;;;;;;;21.17;72.88;100376.13;5073596;28;20064;-65
2022/09/03 03:39:23;;;;;;;8.60;4.80;;;;;;;21.24;72.28;100378.16;5072986;28;20048;-65
2022/09/03 03:41:51;;;;;;;7.65;5.20;;;;;;;21.29;72.47;100379.78;5072324;28;20048;-66
2022/09/03 03:44:19;;;;;;;6.78;5.13;;;;;;;21.36;71.63;100365.81;5073765;28;20423;-65
2022/09/03 03:46:46;;;;;;;9.85;4.97;;;;;;;21.43;71.53;100372.22;5055715;28;20055;-65
2022/09/03 03:49:13;;;;;;;8.60;4.93;;;;;;;21.41;71.78;100371.81;5073574;28;20054;-65
2022/09/03 03:51:41;;;;;;;8.00;5.10;;;;;;;21.38;72.16;100366.19;5073314;28;20057;-65
2022/09/03 03:54:08;;;;;;;9.85;5.22;;;;;;;21.36;71.87;100363.78;5076863;28;20148;-65
2022/09/03 03:56:35;;;;;;;6.88;5.40;;;;;;;21.32;72.12;100357.38;5058038;28;20057;-65
2022/09/03 03:59:03;;;;;;;7.45;5.20;;;;;;;21.25;72.45;100366.53;5077204;28;20044;-65
2022/09/03 04:01:31;;;;;;;8.73;5.50;;;;;;;21.36;72.21;100365.81;5076496;28;20055;-65
2022/09/03 04:03:59;;;;;;;6.93;5.35;;;;;;;21.40;71.59;100359.00;5078989;28;20052;-65
2022/09/03 04:06:27;;;;;;;11.73;5.63;;;;;;;21.21;73.45;100360.16;5056961;28;20060;-67
2022/09/03 04:08:54;;;;;;;7.03;4.90;;;;;;;21.37;72.11;100356.19;5056887;28;20501;-65
2022/09/03 04:11:23;;;;;;;7.38;5.28;;;;;;;21.36;72.30;100360.22;5056191;28;20049;-65
2022/09/03 04:13:50;;;;;;;7.55;5.03;;;;;;;21.35;72.55;100359.41;5039251;28;20520;-64
2022/09/03 04:16:20;;;;;;;7.05;4.80;;;;;;;21.55;71.17;100362.66;5038466;28;20049;-65
2022/09/03 04:18:48;;;;;;;9.35;5.13;;;;;;;21.50;71.86;100355.44;5056750;28;20040;-65
2022/09/03 04:21:18;;;;;;;6.57;4.70;;;;;;;21.52;70.45;100369.03;5055862;28;20049;-65
2022/09/03 04:23:46;;;;;;;7.95;4.68;;;;;;;21.41;72.02;100362.63;5068229;28;20052;-65
2022/09/03 04:26:16;;;;;;;10.20;4.88;;;;;;;21.27;72.91;100363.34;5076196;28;20052;-65
2022/09/03 04:28:44;;;;;;;8.45;5.10;;;;;;;21.37;72.58;100357.00;5077037;28;20064;-65
2022/09/03 04:31:14;;;;;;;8.75;4.85;;;;;;;21.08;74.45;100360.84;5058400;28;20052;-64
2022/09/03 04:33:42;;;;;;;7.75;5.05;;;;;;;21.23;73.19;100362.53;5076678;28;20081;-65
2022/09/03 04:36:11;;;;;;;8.77;5.20;;;;;;;21.28;73.06;100359.38;5075999;28;20084;-65
2022/09/03 04:38:40;;;;;;;9.25;5.25;;;;;;;21.37;72.52;100362.59;5058746;28;20057;-65
2022/09/03 04:41:10;;;;;;;7.50;4.78;;;;;;;21.29;73.17;100363.75;5075721;28;20064;-64
2022/09/03 04:43:37;;;;;;;8.90;5.45;;;;;;;21.43;72.56;100358.22;5076482;28;20053;-64
2022/09/03 04:46:06;;;;;;;7.28;4.90;;;;;;;21.43;72.28;100365.84;5075903;28;20064;-65
2022/09/03 04:48:42;;;;;;;7.32;5.15;;;;;;;21.17;73.97;100364.09;5059752;28;20079;-66
2022/09/03 04:51:12;;;;;;;7.50;5.15;;;;;;;21.11;73.78;100377.69;5075522;28;20056;-65
2022/09/03 04:53:42;;;;;;;10.60;5.60;;;;;;;21.27;73.20;100369.75;5076490;28;20411;-65
2022/09/03 04:56:21;;;;;;;7.57;5.10;;;;;;;21.20;73.62;100368.91;5075861;28;20060;-65
2022/09/03 04:58:53;;;;;;;11.68;5.65;;;;;;;21.29;73.24;100374.19;5076233;28;20048;-65
2022/09/03 05:01:22;;;;;;;7.65;4.90;;;;;;;21.20;73.72;100372.53;5075441;28;20420;-65
2022/09/03 05:03:51;;;;;;;6.93;5.00;;;;;;;21.09;74.37;100368.91;5076099;28;20052;-65
2022/09/03 05:06:19;;;;;;;8.32;4.93;;;;;;;21.35;72.76;100373.41;5058894;28;20520;-65
2022/09/03 05:08:47;;;;;;;7.82;5.10;;;;;;;21.36;72.66;100377.81;5037254;28;20053;-65
2022/09/03 05:11:16;;;;;;;6.88;5.30;;;;;;;21.35;72.54;100372.59;5054869;28;20045;-65
2022/09/03 05:13:50;;;;;;;9.73;5.50;;;;;;;20.99;74.92;100380.03;5038148;28;20053;-65
2022/09/03 05:16:18;;;;;;;8.25;5.32;;;;;;;21.14;73.74;100376.09;5037040;28;20064;-64
2022/09/03 05:18:47;;;;;;;9.32;5.93;;;;;;;21.05;74.55;100373.66;5055573;28;20053;-65
2022/09/03 05:21:16;;;;;;;9.07;5.45;;;;;;;20.99;74.71;100368.84;5055026;28;20049;-66
2022/09/03 05:23:45;;;;;;;8.98;5.57;;;;;;;21.16;73.36;100377.34;5066675;28;20044;-65
2022/09/03 05:26:18;;;;;;;7.78;5.53;;;;;;;21.04;74.49;100372.03;5074649;28;20053;-65
2022/09/03 05:28:46;;;;;;;8.88;5.60;;;;;;;20.91;75.36;100378.34;5075614;28;20048;-67
2022/09/03 05:31:16;;;;;;;9.95;5.78;;;;;;;20.99;74.78;100372.41;5040120;28;20535;-65
2022/09/03 05:33:45;;;;;;;6.82;5.30;;;;;;;21.01;74.33;100383.22;5075476;28;20516;-65
2022/09/03 05:36:18;;;;;;;7.20;5.80;;;;;;;21.15;73.55;100389.72;5074596;28;20064;-65
2022/09/03 05:38:48;;;;;;;9.73;5.72;;;;;;;20.96;74.45;100389.97;5057516;28;20407;-65
2022/09/03 05:41:17;;;;;;;7.57;5.18;;;;;;;21.00;74.52;100387.22;5057440;28;20527;-65
2022/09/03 05:43:57;;;;;;;8.73;5.95;;;;;;;21.13;74.02;100400.50;5057204;28;20431;-65
2022/09/03 05:46:31;;;;;;;8.82;5.53;;;;;;;21.16;73.20;100396.94;5073953;28;20048;-66
2022/09/03 05:49:04;;;;;;;6.68;5.25;;;;;;;21.08;74.27;100388.88;5074857;28;20496;-65
2022/09/03 05:51:32;;;;;;;7.50;5.18;;;;;;;20.96;74.63;100395.56;5056683;28;20048;-65
2022/09/03 05:54:00;;;;;;;9.52;5.38;;;;;;;21.06;74.06;100399.69;5057404;28;20051;-65
2022/09/03 05:56:29;;;;;;;9.15;5.57;;;;;;;21.07;74.42;100399.28;5074675;28;20048;-65
2022/09/03 05:59:02;;;;;;;10.30;5.55;;;;;;;21.23;73.20;100404.56;5056615;28;20061;-65
2022/09/03 06:01:31;;;;;;;9.30;5.20;;;;;;;21.16;73.75;100419.34;5074558;28;20052;-65
2022/09/03 06:04:04;;;;;;;8.40;5.82;;;;;;;21.08;74.75;100408.47;5059204;28;20587;-66
2022/09/03 06:06:34;;;;;;;7.78;5.20;;;;;;;21.17;73.47;100420.13;5071659;28;20064;-65
2022/09/03 06:09:04;;;;;;;8.48;5.55;;;;;;;21.27;73.67;100424.97;5037115;28;20061;-65
2022/09/03 06:11:34;;;;;;;11.50;5.60;;;;;;;21.31;73.37;100422.19;5036468;28;20045;-66
2022/09/03 06:14:04;;;;;;;7.88;5.10;;;;;;;21.43;72.14;100427.50;5054973;28;20782;-65
2022/09/03 06:16:34;;;;;;;7.90;6.05;;;;;;;21.36;72.77;100436.66;5053237;28;20053;-66
2022/09/03 06:19:02;;;;;;;8.75;6.18;;;;;;;21.39;72.18;100435.88;5036879;28;20087;-65
2022/09/03 06:21:29;;;;;;;8.60;6.43;;;;;;;21.40;71.89;100428.25;5036448;28;20045;-65
2022/09/03 06:23:57;;;;;;;8.23;6.45;;;;;;;21.36;72.00;100438.66;5067704;28;20059;-64
2022/09/03 06:26:27;;;;;;;9.83;6.77;;;;;;;21.30;73.03;100432.63;5073645;28;20052;-65
2022/09/03 06:28:56;;;;;;;9.23;6.40;;;;;;;21.39;72.06;100433.06;5074692;28;20045;-65
2022/09/03 06:31:24;;;;;;;8.75;6.43;;;;;;;21.50;71.14;100431.09;5074334;28;20623;-66
2022/09/03 06:33:53;;;;;;;12.05;6.00;;;;;;;21.47;71.23;100434.69;5057040;28;20052;-66
2022/09/03 06:36:23;;;;;;;8.17;5.73;;;;;;;21.56;71.10;100435.16;5074013;28;20052;-67
2022/09/03 06:38:52;;;;;;;8.85;7.07;;;;;;;21.60;70.78;100437.97;5056545;28;20282;-65
2022/09/03 06:41:24;;;;;;;9.23;6.85;;;;;;;21.43;71.74;100441.50;5055848;28;20512;-65
2022/09/03 06:44:03;;;;;;;9.88;6.78;;;;;;;21.50;72.00;100439.50;5074529;28;20638;-65
2022/09/03 06:46:32;;;;;;;15.05;7.85;;;;;;;21.43;72.38;100442.28;5073817;28;20056;-65
2022/09/03 06:48:59;;;;;;;16.45;10.25;;;;;;;21.46;71.57;100440.72;5074157;28;20051;-65
2022/09/03 06:51:28;;;;;;;16.35;9.68;;;;;;;21.43;71.81;100439.47;5073808;28;20044;-65
2022/09/03 06:54:03;;;;;;;15.10;9.85;;;;;;;21.36;72.73;100445.06;5056629;28;20045;-65
2022/09/03 06:56:31;;;;;;;12.77;8.75;;;;;;;21.45;72.04;100453.91;5073819;28;20048;-66
2022/09/03 06:59:10;;;;;;;9.30;7.28;;;;;;;21.54;72.22;100447.94;5074747;28;20040;-67
2022/09/03 07:01:39;;;;;;;10.45;7.55;;;;;;;21.66;71.39;100440.00;5055161;28;20457;-66
2022/09/03 07:04:11;;;;;;;11.00;6.88;;;;;;;21.57;71.59;100441.53;5077890;28;20396;-67
2022/09/03 07:06:41;;;;;;;8.02;6.15;;;;;;;21.62;70.91;100441.97;5068743;28;20057;-67
2022/09/03 07:09:10;;;;;;;9.35;5.95;;;;;;;21.58;71.76;100448.78;5053999;28;20056;-67
2022/09/03 07:11:45;;;;;;;10.25;6.75;;;;;;;21.38;71.85;100445.47;5053562;28;20057;-67
2022/09/03 07:14:13;;;;;;;8.75;6.70;;;;;;;21.22;73.05;100442.97;5037646;28;20064;-66
2022/09/03 07:16:42;;;;;;;8.98;6.15;;;;;;;21.34;72.32;100446.66;5053623;28;20052;-66
2022/09/03 07:19:09;;;;;;;11.55;6.22;;;;;;;21.50;71.37;100450.72;5053894;28;20045;-66
2022/09/03 07:21:37;;;;;;;11.68;6.13;;;;;;;21.56;71.40;100448.34;5053543;28;20514;-66
2022/09/03 07:24:05;;;;;;;10.43;6.57;;;;;;;21.49;71.10;100440.72;5068136;28;20044;-65
2022/09/03 07:26:37;;;;;;;11.50;7.20;;;;;;;21.43;71.53;100447.88;5038911;28;20546;-65
2022/09/03 07:29:06;;;;;;;12.13;7.75;;;;;;;21.51;71.24;100452.34;5077710;28;20159;-66
2022/09/03 07:31:37;;;;;;;14.25;7.22;;;;;;;21.61;71.00;100456.38;5077239;28;20403;-66
2022/09/03 07:34:07;;;;;;;10.52;6.47;;;;;;;21.81;69.82;100452.88;5077141;28;20068;-66
2022/09/03 07:36:41;;;;;;;16.75;7.20;;;;;;;21.72;70.55;100451.63;5077145;28;20043;-66
2022/09/03 07:39:12;;;;;;;10.57;5.65;;;;;;;21.69;70.02;100458.81;5077614;28;20053;-66
2022/09/03 07:41:44;;;;;;;14.38;5.53;;;;;;;21.78;69.89;100458.47;5059010;28;20048;-66
2022/09/03 07:44:14;;;;;;;18.35;5.72;;;;;;;21.96;68.77;100457.34;5077474;28;20546;-66
2022/09/03 07:46:42;;;;;;;14.77;5.07;;;;;;;21.83;69.92;100461.72;5076990;28;20519;-65
2022/09/03 07:49:10;;;;;;;21.17;5.43;;;;;;;21.85;70.11;100456.50;5059435;28;20052;-66
2022/09/03 07:51:39;;;;;;;17.50;5.50;;;;;;;22.06;68.84;100462.19;5059281;28;20059;-66
2022/09/03 07:54:09;;;;;;;16.35;4.57;;;;;;;22.14;68.53;100458.19;5059366;28;20053;-66
2022/09/03 07:56:39;;;;;;;24.17;5.28;;;;;;;22.29;67.53;100468.25;5043305;28;20063;-65
2022/09/03 07:59:07;;;;;;;19.17;4.95;;;;;;;22.43;66.53;100453.44;5059570;28;20053;-65
2022/09/03 08:01:35;;;;;;;14.43;4.07;;;;;;;22.51;66.83;100459.88;5058634;28;20170;-66
2022/09/03 08:04:03;;;;;;;16.45;3.90;;;;;;;22.54;66.46;100470.28;5079625;28;20412;-65
2022/09/03 08:06:36;;;;;;;13.25;3.55;;;;;;;22.52;66.26;100467.88;5073187;28;20060;-66
2022/09/03 08:09:06;;;;;;;9.88;3.40;;;;;;;22.66;65.54;100465.13;5039092;28;20519;-66
2022/09/03 08:11:36;;;;;;;9.17;2.67;;;;;;;22.65;65.32;100466.31;5056000;28;20041;-66
2022/09/03 08:14:06;;;;;;;12.73;3.63;;;;;;;22.78;64.46;100470.34;5056771;28;20435;-65
2022/09/03 08:16:36;;;;;;;30.33;3.90;;;;;;;22.92;64.04;100475.94;5038649;28;20053;-66
2022/09/03 08:19:04;;;;;;;;;;;;;;;23.09;63.56;100463.88;5039351;28;20049;-64
2022/09/03 08:21:31;;;;;;;11.85;3.00;;;;;;;23.13;63.16;100477.91;5056120;28;19921;-65
2022/09/03 08:24:01;;;;;;;8.65;2.67;;;;;;;23.22;62.96;100478.31;5069607;28;20056;-64
2022/09/03 08:26:30;;;;;;;;;;;;;;;23.16;63.15;100491.16;5032039;28;20056;-65
2022/09/03 08:28:58;;;;;;;7.95;2.92;;;;;;;23.16;63.20;100480.72;5039079;28;19921;-66
2022/09/03 08:31:27;;;;;;;7.15;2.53;;;;;;;23.38;62.37;100475.88;5056149;28;20064;-66
2022/09/03 08:33:57;;;;;;;9.55;2.92;;;;;;;23.47;61.83;100483.91;5056492;28;20057;-67
2022/09/03 08:36:28;;;;;;;6.77;2.80;;;;;;;23.31;62.52;100492.75;5056228;28;20044;-65
2022/09/03 08:38:58;;;;;;;6.45;2.60;;;;;;;23.33;62.20;100493.16;5038349;28;20295;-65
2022/09/03 08:41:41;;;;;;;5.88;2.67;;;;;;;23.63;61.19;100489.88;5038622;28;20049;-66
2022/09/03 08:44:27;;;;;;;6.20;4.18;;;;;;;23.74;60.97;100488.63;5056442;28;20056;-66
2022/09/03 08:47:40;;;;;;;9.55;4.22;;;;;;;23.78;61.68;100497.84;5056170;28;20484;-66
2022/09/03 08:50:14;;;;;;;8.27;4.53;;;;;;;23.83;61.49;100496.63;5028783;28;20064;-67
2022/09/03 08:52:47;;;;;;;6.68;2.80;;;;;;;23.72;61.53;100501.50;5037734;28;20424;-65
2022/09/03 08:55:21;;;;;;;7.53;3.08;;;;;;;23.78;61.68;100508.31;5056069;28;20052;-66
2022/09/03 08:58:09;;;;;;;4.93;2.20;;;;;;;23.72;61.94;100512.75;5056565;28;20056;-66
2022/09/03 09:00:52;;;;;;;13.80;5.93;;;;;;;23.88;61.12;100508.28;5055797;28;20060;-66
2022/09/03 09:03:38;;;;;;;14.98;7.32;;;;;;;23.96;61.47;100512.66;5037518;28;20063;-66
2022/09/03 09:06:33;;;;;;;6.97;3.05;;;;;;;24.24;59.53;100506.91;5079536;28;20475;-66
2022/09/03 09:09:09;;;;;;;9.50;5.38;;;;;;;24.16;59.86;100510.19;5055926;28;20045;-66
2022/09/03 09:12:04;;;;;;;8.98;3.33;;;;;;;24.15;59.19;100506.56;5055505;28;20049;-67
2022/09/03 09:14:32;;;;;;;7.13;2.90;;;;;;;24.31;58.71;100508.88;5055501;28;20057;-66
2022/09/03 09:17:31;;;;;;;6.95;2.88;;;;;;;24.24;58.66;100509.72;5055948;28;20049;-65
2022/09/03 09:20:10;;;;;;;7.82;4.03;;;;;;;24.28;58.94;100506.91;5038168;28;20075;-65
2022/09/03 09:22:43;;;;;;;9.88;3.50;;;;;;;24.26;59.38;100523.38;5056681;28;20056;-65
2022/09/03 09:25:22;;;;;;;8.35;3.40;;;;;;;24.30;58.00;100519.31;5058302;28;20427;-66
2022/09/03 09:28:23;;;;;;;8.95;3.40;;;;;;;24.38;58.73;100504.00;5075650;28;20052;-67
2022/09/03 09:30:54;;;;;;;8.25;2.78;;;;;;;24.25;58.06;100507.72;5074583;28;20061;-67
2022/09/03 09:33:23;;;;;;;10.25;2.55;;;;;;;24.28;58.54;100513.34;5057226;28;20048;-67
2022/09/03 09:35:50;;;;;;;12.80;2.47;;;;;;;24.24;58.28;100512.53;5057366;28;20407;-67
2022/09/03 09:38:30;;;;;;;9.20;2.05;;;;;;;24.29;58.75;100520.56;5075469;28;20052;-66
2022/09/03 09:41:11;;;;;;;12.57;2.33;;;;;;;24.24;58.36;100525.81;5075218;28;20052;-67
2022/09/03 09:43:39;;;;;;;5.53;2.20;;;;;;;24.10;59.46;100526.69;5075390;28;20052;-67
2022/09/03 09:46:18;;;;;;;9.23;2.50;;;;;;;23.93;60.00;100527.53;5074878;28;20048;-66
2022/09/03 09:48:51;;;;;;;11.77;2.60;;;;;;;23.93;59.91;100527.53;5074826;28;20052;-66
2022/09/03 09:51:25;;;;;;;4.47;2.20;;;;;;;24.00;59.48;100527.53;5074400;28;20045;-66
2022/09/03 09:54:07;;;;;;;8.55;2.40;;;;;;;24.01;60.24;100526.31;5074845;28;20056;-66
2022/09/03 09:56:35;;;;;;;9.75;2.47;;;;;;;23.92;60.26;100528.72;5074735;28;20049;-67
2022/09/03 09:59:04;;;;;;;12.68;2.60;;;;;;;23.89;60.37;100526.75;5075302;28;20079;-66
2022/09/03 10:01:31;;;;;;;10.10;3.30;;;;;;;23.86;60.56;100530.38;5074647;28;20119;-67
2022/09/03 10:04:10;;;;;;;6.80;2.80;;;;;;;24.06;59.90;100528.72;5058251;28;20087;-65
2022/09/03 10:06:53;;;;;;;5.88;2.63;;;;;;;24.06;60.18;100534.34;5070352;28;20083;-66
2022/09/03 10:09:23;;;;;;;4.82;2.35;;;;;;;24.02;59.85;100533.56;5039284;28;20060;-67
2022/09/03 10:12:22;;;;;;;6.65;2.40;;;;;;;24.11;59.24;100536.72;5054250;28;20052;-67
2022/09/03 10:14:58;;;;;;;8.95;2.95;;;;;;;24.19;59.10;100543.94;5054972;28;20059;-66
2022/09/03 10:17:30;;;;;;;8.45;2.92;;;;;;;24.15;59.38;100547.97;5036857;28;20057;-67
2022/09/03 10:23:10;;;;;;;5.30;2.30;;;;;;;24.08;59.08;100548.00;5036322;28;20547;-66
2022/09/03 10:26:06;;;;;;;8.55;3.25;;;;;;;24.20;58.98;100542.72;5040579;28;20059;-66
2022/09/03 10:28:41;;;;;;;7.57;3.75;;;;;;;24.24;59.02;100551.94;5074757;28;20052;-68
2022/09/03 10:31:28;;;;;;;7.82;4.05;;;;;;;24.41;57.95;100553.06;5073532;28;20048;-67
2022/09/03 10:34:05;;;;;;;9.13;4.72;;;;;;;24.38;58.17;100549.06;5056612;28;20040;-68
2022/09/03 10:36:36;;;;;;;8.13;4.47;;;;;;;24.20;58.53;100558.81;5056316;28;20048;-66
2022/09/03 10:39:10;;;;;;;6.10;3.05;;;;;;;24.21;58.74;100558.41;5040341;28;20052;-67
2022/09/03 10:41:53;;;;;;;8.40;3.53;;;;;;;24.23;58.98;100561.59;5027496;28;20631;-67
2022/09/03 10:45:00;;;;;;;5.32;2.80;;;;;;;24.20;58.39;100556.00;5054310;28;20053;-66
2022/09/03 10:47:37;;;;;;;5.30;2.40;;;;;;;24.37;58.29;100552.28;5035975;28;20057;-67
2022/09/03 10:50:16;;;;;;;4.93;2.30;;;;;;;24.26;58.51;100560.78;5054177;28;20045;-66
2022/09/03 10:53:11;;;;;;;5.50;2.28;;;;;;;24.28;58.21;100557.56;5036161;28;20048;-67
2022/09/03 10:55:59;;;;;;;6.97;2.25;;;;;;;24.20;58.96;100559.59;5036130;28;20492;-66
2022/09/03 10:58:32;;;;;;;7.18;2.42;;;;;;;24.26;58.17;100551.53;5054559;28;20049;-66
2022/09/03 11:01:09;;;;;;;6.22;2.67;;;;;;;24.33;57.94;100543.06;5036083;28;20060;-67
2022/09/03 11:03:47;;;;;;;5.45;2.45;;;;;;;24.44;57.62;100553.03;5057406;28;20056;-67
2022/09/03 11:06:19;;;;;;;5.43;2.70;;;;;;;24.44;57.36;100549.44;5047803;28;20063;-66
2022/09/03 11:09:07;;;;;;;7.28;3.60;;;;;;;24.38;57.51;100546.25;5078338;28;20056;-66
2022/09/03 11:11:40;;;;;;;9.98;6.00;;;;;;;24.44;57.40;100547.41;5060256;28;20052;-66
2022/09/03 11:14:10;;;;;;;13.38;8.20;;;;;;;24.64;57.64;100542.06;5078059;28;20064;-66
2022/09/03 11:16:41;;;;;;;8.02;3.63;;;;;;;24.67;56.46;100532.78;5039951;28;20076;-66
2022/09/03 11:19:14;;;;;;;7.18;4.20;;;;;;;24.65;56.60;100532.41;5057473;28;20055;-68
2022/09/03 11:21:42;;;;;;;6.55;3.22;;;;;;;24.69;55.94;100541.66;5039926;28;20053;-66
2022/09/03 11:24:22;;;;;;;8.73;3.40;;;;;;;24.89;55.38;100551.19;5072652;28;20056;-66
2022/09/03 11:26:54;;;;;;;5.00;2.28;;;;;;;24.95;55.35;100543.88;5059934;28;20060;-67
2022/09/03 11:29:35;;;;;;;6.72;2.42;;;;;;;24.98;54.93;100545.06;5077861;28;20044;-67
2022/09/03 11:32:20;;;;;;;4.47;2.17;;;;;;;25.30;54.30;100545.56;5077439;28;20060;-66
2022/09/03 11:34:50;;;;;;;6.15;2.50;;;;;;;25.22;54.22;100541.22;5077629;28;20052;-68
2022/09/03 11:37:17;;;;;;;6.28;2.70;;;;;;;25.11;54.82;100544.13;5076811;28;20064;-66
2022/09/03 11:40:07;;;;;;;8.20;2.85;;;;;;;24.90;55.48;100538.69;5078168;28;20048;-67
2022/09/03 11:42:40;;;;;;;5.90;2.42;;;;;;;25.00;54.97;100540.59;5059045;28;20060;-68
2022/09/03 11:45:21;;;;;;;5.88;2.72;;;;;;;25.12;54.40;100540.09;5077441;28;20067;-67
2022/09/03 11:47:50;;;;;;;6.95;2.17;;;;;;;25.24;53.24;100538.81;5077498;28;20044;-68
2022/09/03 11:50:26;;;;;;;7.63;2.20;;;;;;;25.51;52.22;100536.94;5077170;28;20064;-67
2022/09/03 11:53:08;;;;;;;8.32;1.65;;;;;;;25.49;51.95;100542.19;5059734;28;20036;-66
2022/09/03 11:56:03;;;;;;;6.20;1.77;;;;;;;25.36;52.28;100535.47;5076996;28;20056;-67
2022/09/03 11:58:35;;;;;;;4.72;1.70;;;;;;;25.35;52.04;100548.75;5077520;28;20428;-66